Flight Track Log - Related Links

Times and Time Zones

All times are in EDT time to prevent confusion due to time zone crossing. See the N1732M flight status page for this flight to view local times or setup timezone preferences in your user account.


Time Position Orientation Groundspeed Altitude Reporting Facility
EDT Latitude Longitude Course Direction KTS MPH feet Rate Location/Type
Mon 12:03:00 PM 26.8813 -80.1680 342° North  Level FlightAware Approximate
Mon 12:04:00 PM 26.9173 -80.1815 342° North  Level FlightAware Approximate
Mon 12:05:00 PM 26.9533 -80.1950 342° North  Level FlightAware Approximate
Mon 12:06:00 PM 26.9891 -80.2090 340° North  Level FlightAware Approximate
Mon 12:06:42 PM 26.9656 -80.1008 343° North 126 145 3,500  Level Miami Center
Mon 12:07:00 PM 27.0249 -80.2233 340° North  Level FlightAware Approximate
Mon 12:07:42 PM 26.9986 -80.1181 335° Northwest 127 146 4,000  Level Miami Center
Mon 12:08:00 PM 27.0606 -80.2376 340° North  Level FlightAware Approximate
Mon 12:08:42 PM 27.0253 -80.1328 334° Northwest 140 161 4,600  Level Miami Center
Mon 12:09:00 PM 27.0964 -80.2519 340° North  Level FlightAware Approximate
Mon 12:09:42 PM 27.0606 -80.1503 336° Northwest 126 145 5,300  Level Miami Center
Mon 12:10:00 PM 27.1321 -80.2662 340° North  Level FlightAware Approximate
Mon 12:10:42 PM 27.0936 -80.1650 338° Northwest 126 145 5,900  Level Miami Center
Mon 12:11:00 PM 27.1685 -80.2784 343° North  Level FlightAware Approximate
Mon 12:11:42 PM 27.1244 -80.1847 330° Northwest 126 145 6,500  Level Miami Center
Mon 12:12:42 PM 27.1533 -80.1994 336° Northwest 126 145 7,000 300 Climbing Miami Center
Mon 12:13:42 PM 27.1883 -80.2192 333° Northwest 134 154 7,100 67 Climbing Miami Center
Mon 12:15:00 PM 27.2340 -80.2402 342° North  Level Estimated
Mon 12:15:42 PM 27.2667 -80.2611 342° North 145 167 7,200  Level Miami Center
Mon 12:16:42 PM 27.3036 -80.2833 332° Northwest 145 167 7,100  Descending Miami Center
Mon 12:17:42 PM 27.3408 -80.3031 335° Northwest 150 173 7,200 50 Climbing Miami Center
Mon 12:18:42 PM 27.3758 -80.3206 336° Northwest 150 173 7,200 -100 Level Miami Center
Mon 12:19:42 PM 27.4172 -80.3453 332° Northwest 155 178 7,000 -400 Descending Miami Center
Mon 12:20:42 PM 27.4453 -80.3833 310° West 155 178 6,400 -550 Descending Miami Center
Mon 12:21:42 PM 27.4678 -80.4122 311° West 148 170 5,900 -550 Descending Miami Center
Mon 12:22:42 PM 27.4939 -80.4433 313° West 143 165 5,300 -400 Descending Miami Center
Mon 12:23:42 PM 27.5203 -80.4769 312° West 143 165 5,100 -100 Descending Miami Center
Mon 12:24:42 PM 27.5486 -80.5108 313° West 138 159 5,100  Level Miami Center
Mon 12:25:42 PM 27.5728 -80.5444 309° West 138 159 5,100  Level Miami Center
Mon 12:26:42 PM 27.5972 -80.5686 319° Northwest 133 153 5,100 -250 Level Miami Center
Mon 12:27:42 PM 27.6347 -80.5814 343° North 133 153 4,600 -550 Descending Miami Center
Mon 12:28:42 PM 27.6675 -80.5967 338° Northwest 128 147 4,000 -300 Descending Miami Center
Mon 12:29:42 PM 27.6983 -80.6164 330° Northwest 123 142 4,000  Level Miami Center
Mon 12:30:42 PM 27.7272 -80.6336 332° Northwest 123 142 4,000 50 Level Miami Center
Mon 12:31:42 PM 27.7581 -80.6511 333° Northwest 123 142 4,100 -220 Climbing Miami Center
Mon 12:33:26 PM 27.8333 -80.6833 339° North 144 166 3,400 -366 Descending Orlando TRACON
Mon 12:34:26 PM 27.8667 -80.7000 336° Northwest 122 140 3,100 -150 Descending Orlando TRACON
Mon 12:35:26 PM 27.8833 -80.7000 360° North 112 129 3,100 50 Level Orlando TRACON
Mon 12:36:27 PM 27.9167 -80.7000 360° North 118 136 3,200 -198 Climbing Orlando TRACON
Mon 12:37:27 PM 27.9500 -80.7000 360° North 133 153 2,700 -474 Descending Orlando TRACON
Mon 12:38:21 PM 27.9833 -80.7333 319° Northwest 138 159 2,300 -474 Descending Orlando TRACON
Mon 12:39:21 PM 28.0000 -80.7667 300° West 134 154 1,800 -333 Descending Orlando TRACON
Mon 12:40:27 PM 28.0167 -80.8167 291° West 115 132 1,600 -48 Descending Orlando TRACON
Mon 12:41:27 PM 28.0167 -80.8500 270° West 123 142 1,700 50 Climbing Orlando TRACON
Mon 12:42:27 PM 28.0333 -80.8667 319° Northwest 101 116 1,700 -48 Level Orlando TRACON
Mon 12:43:33 PM 28.0667 -80.8667 360° North 107 123 1,600 -48 Descending Orlando TRACON
Mon 12:44:33 PM 28.0833 -80.8500 41° Northeast 84 97 1,600  Level Orlando TRACON
Mon 12:45:22 PM 28.1000 -80.8333 41° Northeast 87 100 1,600  Level Orlando TRACON
Mon 12:46:22 PM 28.1000 -80.8000 90° East 94 108 1,600  Level Orlando TRACON
Mon 12:47:22 PM 28.1000 -80.7667 90° East 95 109 1,600 -50 Level Orlando TRACON
Mon 12:48:22 PM 28.1000 -80.7333 90° East 91 105 1,500 -100 Descending Orlando TRACON

Login

Don't have an account? Register now (free) for customized features, flight alerts, and more!